createdAt,value
2018-03-20T00:01:37.053Z,9.07
2018-03-20T00:04:05.923Z,8.67
2018-03-20T00:06:34.076Z,9.40
2018-03-20T00:09:02.198Z,9.60
2018-03-20T00:11:30.327Z,8.33
2018-03-20T00:13:58.450Z,8.27
2018-03-20T00:16:26.594Z,8.80
2018-03-20T00:18:54.722Z,8.60
2018-03-20T00:21:22.869Z,8.67
2018-03-20T00:23:50.996Z,9.50
2018-03-20T00:26:19.129Z,10.30
2018-03-20T00:28:47.244Z,9.60
2018-03-20T00:31:15.422Z,9.97
2018-03-20T00:33:43.534Z,9.00
2018-03-20T00:36:11.667Z,8.47
2018-03-20T00:38:39.779Z,8.80
2018-03-20T00:41:07.894Z,9.60
2018-03-20T00:43:36.019Z,7.13
2018-03-20T00:46:04.180Z,9.33
2018-03-20T00:48:33.095Z,8.13
2018-03-20T00:51:01.194Z,8.13
2018-03-20T00:53:29.333Z,6.83
2018-03-20T00:55:57.453Z,8.70
2018-03-20T00:58:25.583Z,9.20
2018-03-20T01:00:53.694Z,8.77
2018-03-20T01:03:21.829Z,8.83
2018-03-20T01:05:49.953Z,8.70
2018-03-20T01:08:18.091Z,8.10
2018-03-20T01:10:46.206Z,8.97
2018-03-20T01:13:14.343Z,9.00
2018-03-20T01:15:42.456Z,8.53
2018-03-20T01:18:10.589Z,9.37
2018-03-20T01:20:38.693Z,9.70
2018-03-20T01:23:06.823Z,8.90
2018-03-20T01:25:34.936Z,8.00
2018-03-20T01:28:03.066Z,9.90
2018-03-20T01:30:31.277Z,9.03
2018-03-20T01:32:59.411Z,9.33
2018-03-20T01:35:27.522Z,9.67
2018-03-20T01:37:55.650Z,10.17
2018-03-20T01:40:23.784Z,10.80
2018-03-20T01:42:51.909Z,9.03
2018-03-20T01:45:20.027Z,9.60
2018-03-20T01:47:48.164Z,8.90
2018-03-20T01:50:16.279Z,9.00
2018-03-20T01:52:44.429Z,9.20
2018-03-20T01:55:12.538Z,9.37
2018-03-20T01:57:41.427Z,8.67
2018-03-20T02:00:10.315Z,10.13
2018-03-20T02:02:39.230Z,9.50
2018-03-20T02:05:07.348Z,10.70
2018-03-20T02:07:35.479Z,10.07
2018-03-20T02:10:03.584Z,9.87
2018-03-20T02:12:31.724Z,10.90
2018-03-20T02:14:59.826Z,11.13
2018-03-20T02:17:27.977Z,9.63
2018-03-20T02:19:56.084Z,9.53
2018-03-20T02:22:24.988Z,9.60
2018-03-20T02:24:53.098Z,11.23
2018-03-20T02:27:21.239Z,13.50
2018-03-20T02:29:49.380Z,11.10
2018-03-20T02:32:17.521Z,10.20
2018-03-20T02:34:45.631Z,10.40
2018-03-20T02:37:13.767Z,11.50
2018-03-20T02:39:41.890Z,11.80
2018-03-20T02:42:10.085Z,10.90
2018-03-20T02:44:38.204Z,10.40
2018-03-20T02:47:06.345Z,11.53
2018-03-20T02:49:35.237Z,10.87
2018-03-20T02:52:04.151Z,11.57
2018-03-20T02:54:32.274Z,11.70
2018-03-20T02:57:00.411Z,11.70
2018-03-20T02:59:28.543Z,11.80
2018-03-20T03:01:57.452Z,12.30
2018-03-20T03:04:25.568Z,11.27
2018-03-20T03:06:53.676Z,11.53
2018-03-20T03:09:22.592Z,11.67
2018-03-20T03:11:50.716Z,10.70
2018-03-20T03:14:18.874Z,12.17
2018-03-20T03:16:46.991Z,10.70
2018-03-20T03:19:15.890Z,10.47
2018-03-20T03:21:44.769Z,11.40
2018-03-20T03:24:13.672Z,11.47
2018-03-20T03:26:42.570Z,11.33
2018-03-20T03:29:11.473Z,10.77
2018-03-20T03:31:39.601Z,10.30
2018-03-20T03:34:08.660Z,11.27
2018-03-20T03:36:36.777Z,11.37
2018-03-20T03:39:04.922Z,11.60
2018-03-20T03:41:33.034Z,11.50
2018-03-20T03:44:01.949Z,10.10
2018-03-20T03:46:30.054Z,11.33
2018-03-20T03:48:58.197Z,10.47
2018-03-20T03:51:26.306Z,12.60
2018-03-20T03:53:54.460Z,12.37
2018-03-20T03:56:22.589Z,12.20
2018-03-20T03:58:51.500Z,10.77
2018-03-20T04:01:19.607Z,10.70
2018-03-20T04:03:47.755Z,11.27
2018-03-20T04:06:15.864Z,11.17
2018-03-20T04:08:43.993Z,10.73
2018-03-20T04:11:12.120Z,11.10
2018-03-20T04:13:40.251Z,10.23
2018-03-20T04:16:08.380Z,11.90
2018-03-20T04:18:36.516Z,12.27
2018-03-20T04:21:04.628Z,12.47
2018-03-20T04:23:32.772Z,11.93
2018-03-20T04:26:00.889Z,11.37
2018-03-20T04:28:30.388Z,12.20
2018-03-20T04:30:59.183Z,11.10
2018-03-20T04:33:28.088Z,13.43
2018-03-20T04:35:56.207Z,11.87
2018-03-20T04:38:24.410Z,12.90
2018-03-20T04:40:53.408Z,12.87
2018-03-20T04:43:22.319Z,12.77
2018-03-20T04:45:50.426Z,12.87
2018-03-20T04:48:18.554Z,12.70
2018-03-20T04:50:47.441Z,12.50
2018-03-20T04:53:16.334Z,13.33
2018-03-20T04:55:45.216Z,12.20
2018-03-20T04:58:14.116Z,12.50
2018-03-20T05:00:42.991Z,12.37
2018-03-20T05:03:11.890Z,13.03
2018-03-20T05:05:40.776Z,11.60
2018-03-20T05:08:08.911Z,12.33
2018-03-20T05:10:37.040Z,12.87
2018-03-20T05:13:05.940Z,13.60
2018-03-20T05:15:34.063Z,13.13
2018-03-20T05:18:02.187Z,12.87
2018-03-20T05:20:49.178Z,13.90
2018-03-20T05:23:23.669Z,14.13
2018-03-20T05:25:51.792Z,12.53
2018-03-20T05:28:19.947Z,12.50
2018-03-20T05:30:48.827Z,13.03
2018-03-20T05:33:16.974Z,14.23
2018-03-20T05:35:45.098Z,14.47
2018-03-20T05:38:13.441Z,14.70
2018-03-20T05:40:41.557Z,13.80
2018-03-20T05:43:09.720Z,13.10
2018-03-20T05:45:38.604Z,16.17
2018-03-20T05:48:13.286Z,13.90
2018-03-20T05:50:48.157Z,14.60
2018-03-20T05:53:17.068Z,13.00
2018-03-20T05:55:45.174Z,12.33
2018-03-20T05:58:13.283Z,12.10
2018-03-20T06:00:41.419Z,13.07
2018-03-20T06:03:09.539Z,11.97
2018-03-20T06:05:38.434Z,12.93
2018-03-20T06:08:07.328Z,13.77
2018-03-20T06:10:36.276Z,11.50
2018-03-20T06:13:04.388Z,12.60
2018-03-20T06:15:33.292Z,12.17
2018-03-20T06:18:01.407Z,12.97
2018-03-20T06:20:29.548Z,13.80
2018-03-20T06:22:57.668Z,12.50
2018-03-20T06:25:25.812Z,12.50
2018-03-20T06:27:53.931Z,12.70
2018-03-20T06:30:22.137Z,14.13
2018-03-20T06:32:51.023Z,12.50
2018-03-20T06:35:19.937Z,12.80
2018-03-20T06:37:48.048Z,12.50
2018-03-20T06:40:16.190Z,12.43
2018-03-20T06:42:44.296Z,14.10
2018-03-20T06:45:12.432Z,12.40
2018-03-20T06:47:40.550Z,13.60
2018-03-20T06:50:08.701Z,13.73
2018-03-20T06:52:36.820Z,13.90
2018-03-20T06:55:05.723Z,15.13
2018-03-20T06:57:33.840Z,13.20
2018-03-20T07:00:01.986Z,12.50
2018-03-20T07:02:36.988Z,12.63
2018-03-20T07:05:05.907Z,13.33
2018-03-20T07:07:34.014Z,13.93
2018-03-20T07:10:02.212Z,15.70
2018-03-20T07:12:31.107Z,14.60
2018-03-20T07:14:59.244Z,14.97
2018-03-20T07:17:27.360Z,15.57
2018-03-20T07:19:55.516Z,16.67
2018-03-20T07:22:23.623Z,16.27
2018-03-20T07:24:52.522Z,16.63
2018-03-20T07:27:21.409Z,15.70
2018-03-20T07:29:50.302Z,17.33
2018-03-20T07:32:19.178Z,16.93
2018-03-20T07:34:47.326Z,16.20
2018-03-20T07:37:15.440Z,16.53
2018-03-20T07:39:44.340Z,17.07
2018-03-20T07:42:13.217Z,18.60
2018-03-20T07:44:41.357Z,18.43
2018-03-20T07:47:09.466Z,28.00
2018-03-20T07:49:37.604Z,18.30
2018-03-20T07:52:05.726Z,18.23
2018-03-20T07:54:33.890Z,17.90
2018-03-20T07:57:02.773Z,17.80
2018-03-20T07:59:30.907Z,16.80
2018-03-20T08:01:59.023Z,19.20
2018-03-20T08:04:27.932Z,17.83
2018-03-20T08:06:56.053Z,18.10
2018-03-20T08:09:24.187Z,17.87
2018-03-20T08:11:52.299Z,17.37
2018-03-20T08:14:20.405Z,16.73
2018-03-20T08:16:49.298Z,17.40
2018-03-20T08:19:18.172Z,16.57
2018-03-20T08:21:46.320Z,17.67
2018-03-20T08:24:14.441Z,18.07
2018-03-20T08:26:43.331Z,20.40
2018-03-20T08:29:12.195Z,19.00
2018-03-20T08:31:40.345Z,20.30
2018-03-20T08:34:08.508Z,19.10
2018-03-20T08:36:36.892Z,17.50
2018-03-20T08:39:05.434Z,14.80
2018-03-20T08:41:33.717Z,15.10
2018-03-20T08:44:02.031Z,15.73
2018-03-20T08:46:30.172Z,14.90
2018-03-20T08:48:58.344Z,13.93
2018-03-20T08:51:27.236Z,13.20
2018-03-20T08:53:55.340Z,14.33
2018-03-20T08:56:23.521Z,13.63
2018-03-20T08:58:51.635Z,14.17
2018-03-20T09:01:20.533Z,15.50
2018-03-20T09:03:49.422Z,13.37
2018-03-20T09:06:18.314Z,13.47
2018-03-20T09:08:47.184Z,12.57
2018-03-20T09:11:15.325Z,12.60
2018-03-20T09:13:43.448Z,11.50
2018-03-20T09:16:12.423Z,11.90
2018-03-20T09:18:40.692Z,12.53
2018-03-20T09:21:09.840Z,12.83
2018-03-20T09:23:37.972Z,10.43
2018-03-20T09:26:06.098Z,11.40
2018-03-20T09:28:34.211Z,12.33
2018-03-20T09:31:02.352Z,11.40
2018-03-20T09:33:30.474Z,10.23
2018-03-20T09:35:59.378Z,11.73
2018-03-20T09:38:27.490Z,11.53
2018-03-20T09:40:55.628Z,8.60
2018-03-20T09:43:23.741Z,8.90
2018-03-20T09:45:51.863Z,7.40
2018-03-20T09:48:20.751Z,8.00
2018-03-20T09:50:49.648Z,7.57
2018-03-20T09:53:18.517Z,6.63
2018-03-20T09:55:46.645Z,6.73
2018-03-20T09:58:14.760Z,6.20
2018-03-20T10:00:43.765Z,5.37
2018-03-20T10:03:12.808Z,6.67
2018-03-20T10:05:41.218Z,6.73
2018-03-20T10:08:09.448Z,6.80
2018-03-20T10:10:37.571Z,7.90
2018-03-20T10:13:05.676Z,7.50
2018-03-20T10:15:34.573Z,7.60
2018-03-20T10:18:03.440Z,6.57
2018-03-20T10:20:31.576Z,6.00
2018-03-20T10:22:59.685Z,6.47
2018-03-20T10:25:27.816Z,5.97
2018-03-20T10:27:55.920Z,5.23
2018-03-20T10:30:24.060Z,5.97
2018-03-20T10:32:52.173Z,6.13
2018-03-20T10:35:20.300Z,5.53
2018-03-20T10:37:48.736Z,6.03
2018-03-20T10:40:17.628Z,4.33
2018-03-20T10:42:46.538Z,5.03
2018-03-20T10:45:15.647Z,5.43
2018-03-20T10:47:43.904Z,5.70
2018-03-20T10:50:12.089Z,5.70
2018-03-20T10:52:41.077Z,6.23
2018-03-20T10:55:09.212Z,5.50
2018-03-20T10:57:37.317Z,5.33
2018-03-20T11:00:06.570Z,5.30
2018-03-20T11:02:34.687Z,5.60
2018-03-20T11:05:03.566Z,5.77
2018-03-20T11:07:32.456Z,4.93
2018-03-20T11:10:00.552Z,4.50
2018-03-20T11:12:28.680Z,6.07
2018-03-20T11:14:56.787Z,5.80
2018-03-20T11:17:25.680Z,4.87
2018-03-20T11:19:54.545Z,4.80
2018-03-20T11:22:22.671Z,5.57
2018-03-20T11:24:50.780Z,4.87
2018-03-20T11:27:19.002Z,4.70
2018-03-20T11:29:47.180Z,4.60
2018-03-20T11:32:15.336Z,4.03
2018-03-20T11:34:43.527Z,3.40
2018-03-20T11:37:11.667Z,3.17
2018-03-20T11:39:39.767Z,2.83
2018-03-20T11:42:07.900Z,2.60
2018-03-20T11:44:35.990Z,3.00
2018-03-20T11:47:04.885Z,2.83
2018-03-20T11:49:33.757Z,2.70
2018-03-20T11:52:02.726Z,2.47
2018-03-20T11:54:30.824Z,2.80
2018-03-20T11:56:58.979Z,2.70
2018-03-20T11:59:27.262Z,2.40
2018-03-20T12:01:55.477Z,2.60
2018-03-20T12:04:23.660Z,2.67
2018-03-20T12:06:51.775Z,2.90
2018-03-20T12:09:31.944Z,3.07
2018-03-20T12:12:00.069Z,2.57
2018-03-20T12:14:28.170Z,2.40
2018-03-20T12:16:56.296Z,2.30
2018-03-20T12:19:25.150Z,2.70
2018-03-20T12:21:53.281Z,2.37
2018-03-20T12:24:21.381Z,3.00
2018-03-20T12:26:49.508Z,2.70
2018-03-20T12:29:17.617Z,2.70
2018-03-20T12:31:45.754Z,3.20
2018-03-20T12:34:14.623Z,3.17
2018-03-20T12:36:42.749Z,2.90
2018-03-20T12:39:10.846Z,2.80
2018-03-20T12:41:38.972Z,3.03
2018-03-20T12:44:07.066Z,2.70
2018-03-20T12:46:35.204Z,2.50
2018-03-20T12:49:04.073Z,2.90
2018-03-20T12:51:32.195Z,2.67
2018-03-20T12:54:00.304Z,2.70
2018-03-20T12:56:28.459Z,2.77
2018-03-20T12:58:56.592Z,3.30
2018-03-20T13:01:24.748Z,2.50
2018-03-20T13:03:53.606Z,2.63
2018-03-20T13:06:21.741Z,2.93
2018-03-20T13:08:49.834Z,2.90
2018-03-20T13:11:17.966Z,2.80
2018-03-20T13:13:46.831Z,2.47
2018-03-20T13:16:14.963Z,2.67
2018-03-20T13:18:43.084Z,2.90
2018-03-20T13:21:11.205Z,2.70
2018-03-20T13:23:39.308Z,3.40
2018-03-20T13:26:07.584Z,2.70
2018-03-20T13:28:36.502Z,3.03
2018-03-20T13:31:05.395Z,2.90
2018-03-20T13:33:34.265Z,3.40
2018-03-20T13:36:02.398Z,2.80
2018-03-20T13:38:30.494Z,2.20
2018-03-20T13:40:59.361Z,2.83
2018-03-20T13:43:27.487Z,2.60
2018-03-20T13:45:55.582Z,2.80
2018-03-20T13:48:23.711Z,2.43
2018-03-20T13:50:52.699Z,2.20
2018-03-20T13:53:25.634Z,1.90
2018-03-20T13:55:53.816Z,2.00
2018-03-20T13:58:21.943Z,2.20
2018-03-20T14:00:50.048Z,2.13
2018-03-20T14:03:19.154Z,2.00
2018-03-20T14:05:47.528Z,2.13
2018-03-20T14:08:16.005Z,2.17
2018-03-20T14:10:44.872Z,2.47
2018-03-20T14:13:12.995Z,2.47
2018-03-20T14:15:41.095Z,2.10
2018-03-20T14:18:09.296Z,1.90
2018-03-20T14:20:38.236Z,2.50
2018-03-20T14:23:06.315Z,2.17
2018-03-20T14:25:34.418Z,1.70
2018-03-20T14:28:02.536Z,1.97
2018-03-20T14:30:30.643Z,2.10
2018-03-20T14:32:58.768Z,1.87
2018-03-20T14:35:27.631Z,1.90
2018-03-20T14:37:55.766Z,1.93
2018-03-20T14:40:23.874Z,1.80
2018-03-20T14:42:51.995Z,1.70
2018-03-20T14:45:20.091Z,1.63
2018-03-20T14:47:48.215Z,1.30
2018-03-20T14:50:17.123Z,1.87
2018-03-20T14:52:45.419Z,1.60
2018-03-20T14:55:13.558Z,1.70
2018-03-20T14:57:41.732Z,1.47
2018-03-20T15:00:10.699Z,1.40
2018-03-20T15:02:38.829Z,1.50
2018-03-20T15:05:06.928Z,1.87
2018-03-20T15:07:35.041Z,2.10
2018-03-20T15:10:04.356Z,1.70
2018-03-20T15:12:32.539Z,2.27
2018-03-20T15:15:00.649Z,1.73
2018-03-20T15:17:28.779Z,1.70
2018-03-20T15:19:56.878Z,2.50
2018-03-20T15:22:25.007Z,1.50
2018-03-20T15:24:53.874Z,1.90
2018-03-20T15:27:21.991Z,1.33
2018-03-20T15:29:50.093Z,1.50
2018-03-20T15:32:18.207Z,1.80
2018-03-20T15:34:46.306Z,1.50
2018-03-20T15:37:14.440Z,1.80
2018-03-20T15:39:42.533Z,1.80
2018-03-20T15:42:11.428Z,1.50
2018-03-20T15:44:40.300Z,1.70
2018-03-20T15:47:08.418Z,1.60
2018-03-20T15:49:36.527Z,2.17
2018-03-20T15:52:04.647Z,1.50
2018-03-20T15:54:33.474Z,2.20
2018-03-20T15:57:01.608Z,1.80
2018-03-20T15:59:30.486Z,1.50
2018-03-20T16:02:00.612Z,1.70
2018-03-20T16:04:29.480Z,2.07
2018-03-20T16:06:57.607Z,1.83
2018-03-20T16:09:25.711Z,2.97
2018-03-20T16:11:53.840Z,2.10
2018-03-20T16:14:21.943Z,1.90
2018-03-20T16:16:50.050Z,1.53
2018-03-20T16:19:18.181Z,1.40
2018-03-20T16:21:46.284Z,1.93
2018-03-20T16:24:14.413Z,1.50
2018-03-20T16:26:42.511Z,1.80
2018-03-20T16:29:10.629Z,1.80
2018-03-20T16:31:38.732Z,1.83
2018-03-20T16:34:06.845Z,1.50
2018-03-20T16:36:34.943Z,1.80
2018-03-20T16:39:03.073Z,1.40
2018-03-20T16:41:31.186Z,1.20
2018-03-20T16:43:59.308Z,1.60
2018-03-20T16:46:27.414Z,1.70
2018-03-20T16:48:55.536Z,2.00
2018-03-20T16:51:24.474Z,1.67
2018-03-20T16:53:52.596Z,1.63
2018-03-20T16:56:20.688Z,1.30
2018-03-20T16:58:48.872Z,1.63
2018-03-20T17:01:16.986Z,1.33
2018-03-20T17:03:45.113Z,1.57
2018-03-20T17:06:13.591Z,1.17
2018-03-20T17:08:41.769Z,1.70
2018-03-20T17:11:09.863Z,1.67
2018-03-20T17:13:38.002Z,1.50
2018-03-20T17:16:06.107Z,1.80
2018-03-20T17:18:34.298Z,1.33
2018-03-20T17:21:02.793Z,1.87
2018-03-20T17:23:30.920Z,1.40
2018-03-20T17:25:59.795Z,1.70
2018-03-20T17:28:28.682Z,1.67
2018-03-20T17:30:56.797Z,1.43
2018-03-20T17:33:24.927Z,1.60
2018-03-20T17:35:53.032Z,1.50
2018-03-20T17:38:21.153Z,1.93
2018-03-20T17:40:49.273Z,2.27
2018-03-20T17:43:18.165Z,1.47
2018-03-20T17:45:47.036Z,1.70
2018-03-20T17:48:15.201Z,1.93
2018-03-20T17:50:43.296Z,2.03
2018-03-20T17:53:11.455Z,11.20
2018-03-20T17:55:39.576Z,5.83
2018-03-20T17:58:07.725Z,9.20
2018-03-20T18:00:36.586Z,11.17
2018-03-20T18:03:04.724Z,6.70
2018-03-20T18:05:32.832Z,8.00
2018-03-20T18:08:00.970Z,3.57
2018-03-20T18:10:29.079Z,4.33
2018-03-20T18:12:57.213Z,4.80
2018-03-20T18:15:25.315Z,7.10
2018-03-20T18:17:53.475Z,3.00
2018-03-20T18:20:21.577Z,6.10
2018-03-20T18:22:49.700Z,4.43
2018-03-20T18:25:18.419Z,8.30
2018-03-20T18:27:46.560Z,24.80
2018-03-20T18:30:14.659Z,6.20
2018-03-20T18:32:42.873Z,3.80
2018-03-20T18:35:11.744Z,3.00
2018-03-20T18:37:39.866Z,3.70
2018-03-20T18:40:07.981Z,3.80
2018-03-20T18:42:36.901Z,3.77
2018-03-20T18:45:05.043Z,1.90
2018-03-20T18:47:33.153Z,3.23
2018-03-20T18:50:02.069Z,10.10
2018-03-20T18:52:30.183Z,23.87
2018-03-20T18:54:58.298Z,7.50
2018-03-20T18:57:26.413Z,19.60
2018-03-20T18:59:54.565Z,41.70
2018-03-20T19:02:22.674Z,17.50
2018-03-20T19:04:50.913Z,5.73
2018-03-20T19:07:19.084Z,6.30
2018-03-20T19:09:47.223Z,5.53
2018-03-20T19:12:15.331Z,3.63
2018-03-20T19:14:43.464Z,7.80
2018-03-20T19:17:11.570Z,4.40
2018-03-20T19:19:39.696Z,2.20
2018-03-20T19:22:07.808Z,2.00
2018-03-20T19:24:35.940Z,1.70
2018-03-20T19:27:04.062Z,3.20
2018-03-20T19:29:33.343Z,2.30
2018-03-20T19:32:02.260Z,2.00
2018-03-20T19:34:31.136Z,2.00
2018-03-20T19:36:59.996Z,2.10
2018-03-20T19:39:28.123Z,2.10
2018-03-20T19:41:56.242Z,2.50
2018-03-20T19:44:24.360Z,1.93
2018-03-20T19:46:52.466Z,2.23
2018-03-20T19:49:20.588Z,2.10
2018-03-20T19:51:49.454Z,3.10
2018-03-20T19:54:17.580Z,3.63
2018-03-20T19:56:45.674Z,2.53
2018-03-20T19:59:13.824Z,2.83
2018-03-20T20:01:41.928Z,2.53
2018-03-20T20:04:10.051Z,2.77
2018-03-20T20:06:38.156Z,2.40
2018-03-20T20:09:06.287Z,3.30
2018-03-20T20:11:34.432Z,2.23
2018-03-20T20:14:03.354Z,2.57
2018-03-20T20:16:31.523Z,2.10
2018-03-20T20:19:00.407Z,2.27
2018-03-20T20:21:29.289Z,2.13
2018-03-20T20:23:57.422Z,2.20
2018-03-20T20:26:25.559Z,2.33
2018-03-20T20:28:53.688Z,2.50
2018-03-20T20:31:21.788Z,2.33
2018-03-20T20:33:50.681Z,2.30
2018-03-20T20:36:19.875Z,2.60
2018-03-20T20:38:48.791Z,2.67
2018-03-20T20:41:16.896Z,2.20
2018-03-20T20:43:45.049Z,2.90
2018-03-20T20:46:13.148Z,2.20
2018-03-20T20:48:41.277Z,2.17
2018-03-20T20:51:10.171Z,2.67
2018-03-20T20:53:38.764Z,2.47
2018-03-20T20:56:06.884Z,2.47
2018-03-20T20:58:35.036Z,2.80
2018-03-20T21:01:03.160Z,2.70
2018-03-20T21:03:32.077Z,2.10
2018-03-20T21:06:00.237Z,2.67
2018-03-20T21:08:28.376Z,2.40
2018-03-20T21:10:56.475Z,2.03
2018-03-20T21:13:25.384Z,2.43
2018-03-20T21:15:53.489Z,2.57
2018-03-20T21:18:21.581Z,2.20
2018-03-20T21:20:49.705Z,2.63
2018-03-20T21:23:18.444Z,2.20
2018-03-20T21:25:46.608Z,2.30
2018-03-20T21:28:14.720Z,3.50
2018-03-20T21:30:43.664Z,2.30
2018-03-20T21:33:11.813Z,2.30
2018-03-20T21:35:40.701Z,2.43
2018-03-20T21:38:08.803Z,2.50
2018-03-20T21:40:36.958Z,3.00
2018-03-20T21:43:05.087Z,2.80
2018-03-20T21:45:33.274Z,2.90
2018-03-20T21:48:01.369Z,2.93
2018-03-20T21:50:29.507Z,3.53
2018-03-20T21:52:57.613Z,3.70
2018-03-20T21:55:25.734Z,3.70
2018-03-20T21:57:53.828Z,4.20
2018-03-20T22:00:21.987Z,3.37
2018-03-20T22:02:51.217Z,3.60
2018-03-20T22:05:20.117Z,3.47
2018-03-20T22:07:48.235Z,3.53
2018-03-20T22:10:16.359Z,3.80
2018-03-20T22:12:44.446Z,3.70
2018-03-20T22:15:12.731Z,3.10
2018-03-20T22:17:41.665Z,3.77
2018-03-20T22:20:09.790Z,3.53
2018-03-20T22:22:37.903Z,3.33
2018-03-20T22:25:06.866Z,3.93
2018-03-20T22:27:35.008Z,2.93
2018-03-20T22:30:03.376Z,3.87
2018-03-20T22:32:31.615Z,5.33
2018-03-20T22:35:01.085Z,6.40
2018-03-20T22:37:29.195Z,5.57
2018-03-20T22:39:57.342Z,5.67
2018-03-20T22:42:25.452Z,4.83
2018-03-20T22:44:53.593Z,7.13
2018-03-20T22:47:21.700Z,5.10
2018-03-20T22:49:49.887Z,3.20
2018-03-20T22:52:18.733Z,4.90
2018-03-20T22:54:46.867Z,4.40
2018-03-20T22:57:15.742Z,4.57
2018-03-20T22:59:44.635Z,3.67
2018-03-20T23:02:13.513Z,3.27
2018-03-20T23:04:41.630Z,2.90
2018-03-20T23:07:09.823Z,3.13
2018-03-20T23:09:39.402Z,3.50
2018-03-20T23:12:07.641Z,3.40
2018-03-20T23:14:36.786Z,4.63
2018-03-20T23:17:04.904Z,5.00
2018-03-20T23:19:33.040Z,7.67
2018-03-20T23:22:02.596Z,6.00
2018-03-20T23:24:30.834Z,4.60
2018-03-20T23:26:58.927Z,4.80
2018-03-20T23:29:27.072Z,4.00
2018-03-20T23:31:55.188Z,4.00
2018-03-20T23:34:23.336Z,3.50
2018-03-20T23:36:52.813Z,3.73
2018-03-20T23:39:20.964Z,3.40
2018-03-20T23:41:49.928Z,3.33
2018-03-20T23:44:18.063Z,3.53
2018-03-20T23:46:46.184Z,3.20
2018-03-20T23:49:14.345Z,3.70
2018-03-20T23:51:42.449Z,3.27
2018-03-20T23:54:11.325Z,2.60
2018-03-20T23:56:39.463Z,3.50
2018-03-20T23:59:07.563Z,3.50
